Weather at San Diego International Airport

Public forecast

Using degrees Fahrenheit for public forecast. Weather courtesy of forecast.io.

Current aviation weather report (METAR) for San Diego International Airport

Retrieved 2020/10/30 05:51 UTC (1 hour ago):

KSAN 300551Z 00000KT 6SM BR FEW003 FEW250 17/14 A3002 RMK AO2 SLP165 T01720144 10233 20172 53005

Aviation forecast (TAF) for San Diego International Airport

Retrieved 2020/10/30 06:22 UTC (37 minutes ago):

TAF KSAN 300520Z 3006/3112 VRB04KT P6SM FEW005 FM301900 29008KT P6SM SKC FM310100 VRB04KT P6SM FEW005